Time;durP1;ratioP1;P1;durP2;ratioP2;P2;SDS_P1;SDS_P2;PMS_P1;PMS_P2;Temp;Humidity;BMP_temperature;BMP_pressure;BME280_temperature;BME280_humidity;BME280_pressure;Samples;Min_cycle;Max_cycle;Signal;HPM_P1;HPM_P2
2023/03/04 00:00:35;;;;;;;18.73;4.38;;;;;;;4.68;78.82;102473.97;5018999;28;20036;-76
2023/03/04 00:03:01;;;;;;;19.08;4.88;;;;;;;4.67;79.32;102473.09;5001473;28;20033;-76
2023/03/04 00:05:26;;;;;;;18.48;5.22;;;;;;;4.67;79.10;102474.84;5002257;28;20036;-76
2023/03/04 00:07:51;;;;;;;17.58;4.45;;;;;;;4.67;79.70;102480.19;5001941;28;20456;-76
2023/03/04 00:10:17;;;;;;;24.27;5.28;;;;;;;4.64;79.64;102477.59;5002246;28;20117;-76
2023/03/04 00:12:42;;;;;;;17.90;5.03;;;;;;;4.61;80.28;102475.91;5018237;28;20096;-76
2023/03/04 00:15:08;;;;;;;20.13;5.45;;;;;;;4.59;79.74;102475.03;5000823;28;20029;-76
2023/03/04 00:17:33;;;;;;;21.65;4.65;;;;;;;4.59;80.25;102479.50;5019303;28;20120;-76
2023/03/04 00:19:58;;;;;;;16.98;4.28;;;;;;;4.60;80.39;102478.56;5019897;28;20049;-76
2023/03/04 00:22:24;;;;;;;24.77;4.88;;;;;;;4.58;80.89;102469.75;5019154;28;20021;-76
2023/03/04 00:24:49;;;;;;;23.05;5.50;;;;;;;4.54;81.13;102461.84;4995117;28;20562;-76
2023/03/04 00:27:14;;;;;;;23.90;5.43;;;;;;;4.54;80.43;102464.50;5015948;28;20580;-76
2023/03/04 00:29:40;;;;;;;20.30;4.57;;;;;;;4.59;80.43;102460.84;5001647;28;20087;-76
2023/03/04 00:32:05;;;;;;;19.88;4.80;;;;;;;4.60;80.20;102460.81;5016472;28;20289;-76
2023/03/04 00:34:30;;;;;;;17.85;3.97;;;;;;;4.62;80.29;102455.47;5019111;28;20454;-76
2023/03/04 00:37:00;;;;;;;23.67;5.03;;;;;;;4.66;80.36;102462.47;5000913;28;20650;-76
2023/03/04 00:39:26;;;;;;;26.95;5.20;;;;;;;4.66;80.56;102462.47;5017233;28;20650;-76
2023/03/04 00:41:52;;;;;;;19.10;5.10;;;;;;;4.69;80.55;102465.06;5017131;28;20123;-76
2023/03/04 00:44:17;;;;;;;22.25;4.60;;;;;;;4.71;80.08;102471.22;5019731;28;20147;-76
2023/03/04 00:46:43;;;;;;;21.15;4.95;;;;;;;4.71;80.01;102463.22;5018461;28;20033;-76
2023/03/04 00:49:08;;;;;;;22.65;5.07;;;;;;;4.71;80.04;102457.91;5000981;28;20030;-76
2023/03/04 00:51:33;;;;;;;19.38;4.15;;;;;;;4.69;80.20;102457.94;5017561;28;20033;-76
2023/03/04 00:53:59;;;;;;;22.38;5.53;;;;;;;4.72;80.60;102462.34;5018190;28;20049;-76
2023/03/04 00:56:24;;;;;;;17.38;4.20;;;;;;;4.73;80.59;102456.97;5000389;28;20129;-76
2023/03/04 00:58:49;;;;;;;18.85;4.53;;;;;;;4.73;80.48;102454.31;5018539;28;20087;-76
2023/03/04 01:01:15;;;;;;;22.50;4.90;;;;;;;4.73;80.53;102458.75;5018480;28;20033;-76
2023/03/04 01:03:41;;;;;;;21.92;5.07;;;;;;;4.73;80.77;102464.09;5018010;28;20090;-76
2023/03/04 01:06:07;;;;;;;20.15;4.70;;;;;;;4.70;81.17;102464.13;5000845;28;20033;-76
2023/03/04 01:08:32;;;;;;;24.70;5.57;;;;;;;4.72;81.13;102472.97;5018322;28;20362;-76
2023/03/04 01:10:57;;;;;;;22.08;4.75;;;;;;;4.71;81.00;102471.22;4999858;28;20056;-76
2023/03/04 01:13:22;;;;;;;20.60;4.72;;;;;;;4.72;81.55;102467.66;4999723;28;20033;-76
2023/03/04 01:15:48;;;;;;;20.13;4.60;;;;;;;4.71;80.79;102473.88;5000764;28;20021;-76
2023/03/04 01:18:13;;;;;;;16.40;4.00;;;;;;;4.72;80.75;102470.31;5018681;28;20028;-76
2023/03/04 01:20:38;;;;;;;20.20;3.97;;;;;;;4.72;80.65;102465.00;5016677;28;20091;-76
2023/03/04 01:23:03;;;;;;;15.80;3.33;;;;;;;4.71;80.98;102468.56;5017278;28;20305;-76
2023/03/04 01:25:29;;;;;;;17.73;4.25;;;;;;;4.72;80.89;102467.66;5018929;28;20029;-76
2023/03/04 01:27:54;;;;;;;23.67;5.03;;;;;;;4.71;81.20;102465.91;5000245;28;20033;-76
2023/03/04 01:30:20;;;;;;;16.63;3.92;;;;;;;4.70;81.16;102470.34;5016161;28;20064;-76
2023/03/04 01:32:45;;;;;;;18.65;4.47;;;;;;;4.73;81.09;102464.97;5000263;28;20033;-76
2023/03/04 01:35:10;;;;;;;24.15;4.38;;;;;;;4.73;81.13;102464.97;5017011;28;20029;-76
2023/03/04 01:37:36;;;;;;;18.80;4.07;;;;;;;4.75;81.29;102458.72;5017536;28;20494;-76
2023/03/04 01:40:04;;;;;;;16.73;4.43;;;;;;;4.76;81.22;102461.34;4998827;28;20243;-76
2023/03/04 01:42:32;;;;;;;20.10;4.80;;;;;;;4.74;81.10;102457.84;5022067;28;20126;-76
2023/03/04 01:44:57;;;;;;;20.55;4.47;;;;;;;4.73;81.14;102451.63;5006720;28;20234;-76
2023/03/04 01:47:27;;;;;;;20.48;4.72;;;;;;;4.71;80.72;102448.16;5005631;28;20157;-76
2023/03/04 01:49:55;;;;;;;31.45;5.35;;;;;;;4.72;81.38;102446.34;5005905;28;20374;-76
2023/03/04 01:52:20;;;;;;;23.35;4.60;;;;;;;4.70;81.48;102445.50;5024341;28;20079;-76
2023/03/04 01:54:47;;;;;;;22.15;4.07;;;;;;;4.70;81.70;102437.50;5006363;28;20128;-76
2023/03/04 01:57:18;;;;;;;19.75;4.03;;;;;;;4.69;81.67;102435.78;5024040;28;20030;-76
2023/03/04 01:59:44;;;;;;;19.83;4.50;;;;;;;4.67;81.63;102427.81;5023691;28;20095;-76
2023/03/04 02:02:10;;;;;;;13.52;3.30;;;;;;;4.67;81.62;102429.59;5023243;28;20342;-76
2023/03/04 02:04:36;;;;;;;14.77;3.35;;;;;;;4.68;81.71;102426.88;5024344;28;20490;-76
2023/03/04 02:07:02;;;;;;;15.20;3.58;;;;;;;4.71;81.84;102423.28;5005571;28;20125;-76
2023/03/04 02:09:29;;;;;;;22.38;4.45;;;;;;;4.72;81.49;102425.91;5023244;28;20558;-76
2023/03/04 02:11:55;;;;;;;20.33;3.65;;;;;;;4.70;81.67;102425.09;5023262;28;20037;-76
2023/03/04 02:14:21;;;;;;;17.90;3.92;;;;;;;4.73;81.77;102421.47;5006353;28;20032;-76
2023/03/04 02:16:48;;;;;;;18.45;3.85;;;;;;;4.76;81.21;102420.50;5005238;28;20034;-76
2023/03/04 02:19:38;;;;;;;15.60;3.63;;;;;;;4.78;81.52;102419.56;5023206;28;20102;-76
2023/03/04 02:22:04;;;;;;;11.85;3.22;;;;;;;4.79;81.01;102421.31;5005130;28;20086;-76
2023/03/04 02:24:35;;;;;;;13.65;3.30;;;;;;;4.79;80.32;102420.44;5006488;28;20033;-76
2023/03/04 02:27:00;;;;;;;12.82;3.30;;;;;;;4.77;80.32;102409.81;5005248;28;20097;-76
2023/03/04 02:29:27;;;;;;;11.90;3.28;;;;;;;4.75;80.92;102416.97;5024416;28;20041;-76
2023/03/04 02:31:53;;;;;;;20.33;3.15;;;;;;;4.73;81.14;102410.81;5023885;28;20041;-76
2023/03/04 02:34:26;;;;;;;12.10;2.97;;;;;;;4.72;81.12;102414.38;5005087;28;20026;-76
2023/03/04 02:36:53;;;;;;;13.80;3.30;;;;;;;4.73;80.64;102416.16;5022630;28;20137;-76
2023/03/04 02:39:38;;;;;;;16.05;3.42;;;;;;;4.74;80.56;102401.91;5023090;28;20051;-76
2023/03/04 02:42:03;;;;;;;20.60;3.65;;;;;;;4.75;80.94;102413.44;5023295;28;20037;-76
2023/03/04 02:44:31;;;;;;;17.98;3.40;;;;;;;4.75;80.84;102403.66;5023144;28;20095;-76
2023/03/04 02:46:57;;;;;;;18.83;3.22;;;;;;;4.75;81.40;102403.66;5005686;28;20084;-76
2023/03/04 02:49:25;;;;;;;16.73;3.05;;;;;;;4.75;81.12;102403.66;5024309;28;20052;-76
2023/03/04 02:51:52;;;;;;;12.48;3.22;;;;;;;4.76;81.28;102400.09;5022991;28;20108;-76
2023/03/04 02:54:20;;;;;;;15.98;2.90;;;;;;;4.76;81.21;102393.88;4997978;28;20049;-76
2023/03/04 02:56:51;;;;;;;18.88;3.63;;;;;;;4.77;81.29;102398.28;5000799;28;20034;-76
2023/03/04 02:59:17;;;;;;;17.13;3.92;;;;;;;4.79;81.74;102396.47;4998431;28;20042;-76
2023/03/04 03:01:43;;;;;;;17.95;3.70;;;;;;;4.78;81.42;102395.59;5000825;28;20428;-76
2023/03/04 03:04:09;;;;;;;20.45;4.10;;;;;;;4.77;81.73;102385.84;5000009;28;20084;-76
2023/03/04 03:06:34;;;;;;;18.80;3.78;;;;;;;4.74;82.10;102380.59;5001111;28;20026;-76
2023/03/04 03:09:00;;;;;;;14.18;3.35;;;;;;;4.72;82.10;102388.63;4999328;28;20227;-76
2023/03/04 03:11:25;;;;;;;16.92;4.18;;;;;;;4.69;82.34;102385.16;5000566;28;20393;-76
2023/03/04 03:13:50;;;;;;;14.40;3.25;;;;;;;4.67;81.90;102387.88;5001628;28;20038;-76
2023/03/04 03:16:16;;;;;;;19.50;3.85;;;;;;;4.67;82.35;102395.84;4999004;28;20604;-76
2023/03/04 03:18:41;;;;;;;13.48;3.53;;;;;;;4.68;82.27;102388.75;5000455;28;20184;-75
2023/03/04 03:21:06;;;;;;;19.58;4.10;;;;;;;4.70;82.06;102389.56;4998359;28;20461;-76
2023/03/04 03:23:33;;;;;;;13.20;3.28;;;;;;;4.72;82.21;102385.09;4998801;28;20034;-76
2023/03/04 03:25:58;;;;;;;15.35;3.65;;;;;;;4.76;81.72;102386.78;5000295;28;20065;-76
2023/03/04 03:28:23;;;;;;;13.80;3.70;;;;;;;4.77;81.91;102396.50;4998927;28;20121;-76
2023/03/04 03:30:49;;;;;;;12.13;3.70;;;;;;;4.77;81.67;102384.97;4998218;28;20022;-76
2023/03/04 03:33:14;;;;;;;17.20;3.40;;;;;;;4.78;82.14;102381.41;5000062;28;20090;-76
2023/03/04 03:35:39;;;;;;;20.37;3.90;;;;;;;4.78;82.27;102374.28;4998254;28;20127;-76
2023/03/04 03:38:05;;;;;;;21.63;4.22;;;;;;;4.78;82.29;102379.59;4999763;28;20033;-76
2023/03/04 03:40:30;;;;;;;17.13;3.90;;;;;;;4.77;82.41;102375.19;5000135;28;20486;-76
2023/03/04 03:42:55;;;;;;;15.18;3.75;;;;;;;4.75;82.53;102378.81;5000116;28;20109;-76
2023/03/04 03:45:21;;;;;;;20.50;3.47;;;;;;;4.72;82.36;102375.31;4997461;28;20037;-76
2023/03/04 03:47:46;;;;;;;22.77;4.05;;;;;;;4.73;82.64;102370.88;4999246;28;20036;-76
2023/03/04 03:50:11;;;;;;;24.15;3.83;;;;;;;4.72;82.60;102377.09;4998250;28;20030;-76
2023/03/04 03:52:37;;;;;;;14.23;3.53;;;;;;;4.73;83.16;102373.53;4997689;28;20276;-76
2023/03/04 03:55:02;;;;;;;12.93;3.03;;;;;;;4.75;82.61;102374.34;4997440;28;20034;-76
2023/03/04 03:57:28;;;;;;;14.80;3.58;;;;;;;4.75;82.20;102374.34;4999845;28;20034;-76
2023/03/04 03:59:54;;;;;;;12.30;2.67;;;;;;;4.76;81.73;102378.78;4999567;28;20038;-76
2023/03/04 04:02:19;;;;;;;20.58;3.42;;;;;;;4.76;81.39;102373.47;4997649;28;20408;-76
2023/03/04 04:04:44;;;;;;;15.10;3.25;;;;;;;4.75;80.90;102373.50;4999485;28;20041;-76
2023/03/04 04:07:09;;;;;;;15.70;3.33;;;;;;;4.70;80.73;102373.59;4996082;28;20030;-76
2023/03/04 04:09:35;;;;;;;17.92;3.20;;;;;;;4.69;80.02;102380.72;4999184;28;20050;-76
2023/03/04 04:12:00;;;;;;;17.90;3.67;;;;;;;4.67;80.39;102374.56;5000096;28;20045;-76
2023/03/04 04:14:25;;;;;;;16.48;3.30;;;;;;;4.65;80.32;102375.50;4998271;28;20033;-76
2023/03/04 04:16:50;;;;;;;18.17;3.83;;;;;;;4.63;80.60;102372.00;4999186;28;20552;-76
2023/03/04 04:19:18;;;;;;;15.18;2.92;;;;;;;4.63;80.94;102372.88;4997997;28;20060;-76
2023/03/04 04:21:44;;;;;;;9.88;2.78;;;;;;;4.65;80.91;102375.50;4997865;28;20034;-76
2023/03/04 04:24:09;;;;;;;11.65;2.72;;;;;;;4.65;80.86;102378.16;4999223;28;20493;-76
2023/03/04 04:26:35;;;;;;;14.25;3.03;;;;;;;4.69;80.88;102377.19;4997041;28;20109;-76
2023/03/04 04:29:00;;;;;;;16.90;3.50;;;;;;;4.69;80.44;102379.84;4997231;28;20827;-76
2023/03/04 04:31:25;;;;;;;14.80;3.15;;;;;;;4.69;80.72;102374.50;4999044;28;20143;-76
2023/03/04 04:33:50;;;;;;;19.65;3.78;;;;;;;4.69;80.81;102378.03;4997694;28;20033;-76
2023/03/04 04:36:16;;;;;;;12.27;3.30;;;;;;;4.70;80.97;102376.25;4999392;28;20489;-76
2023/03/04 04:38:42;;;;;;;19.77;4.13;;;;;;;4.70;81.06;102381.56;4998823;28;20176;-76
2023/03/04 04:41:22;;;;;;;29.55;4.32;;;;;;;4.72;80.52;102382.44;4997418;28;20105;-76
2023/03/04 04:43:47;;;;;;;17.30;3.38;;;;;;;4.70;80.49;102378.91;4996563;28;20053;-75
2023/03/04 04:46:13;;;;;;;16.92;2.90;;;;;;;4.71;80.40;102381.56;4997087;28;20021;-75
2023/03/04 04:48:38;;;;;;;15.80;3.28;;;;;;;4.73;80.07;102382.38;4999378;28;20038;-75
2023/03/04 04:51:04;;;;;;;13.55;3.30;;;;;;;4.76;80.07;102394.78;4996789;28;20084;-75
2023/03/04 04:53:29;;;;;;;19.08;4.07;;;;;;;4.75;79.80;102389.47;5010910;28;20037;-75
2023/03/04 04:55:54;;;;;;;13.00;3.15;;;;;;;4.77;79.68;102383.19;5018655;28;20353;-75
2023/03/04 04:58:20;;;;;;;21.73;3.78;;;;;;;4.78;79.95;102389.41;5017919;28;20044;-76
2023/03/04 05:00:45;;;;;;;9.02;2.55;;;;;;;4.76;80.23;102386.78;5002296;28;20530;-75
2023/03/04 05:03:10;;;;;;;20.40;3.53;;;;;;;4.78;80.04;102389.41;5019310;28;20040;-75
2023/03/04 05:05:36;;;;;;;10.95;2.38;;;;;;;4.77;79.73;102390.31;5001725;28;20027;-76
2023/03/04 05:08:01;;;;;;;12.80;3.08;;;;;;;4.78;79.85;102384.94;5019267;28;20025;-75
2023/03/04 05:10:26;;;;;;;21.50;4.03;;;;;;;4.77;79.77;102383.19;5019902;28;20511;-75
2023/03/04 05:12:51;;;;;;;12.30;3.42;;;;;;;4.77;79.83;102387.63;5019432;28;20044;-75
2023/03/04 05:15:17;;;;;;;24.40;4.20;;;;;;;4.78;79.45;102387.59;5017712;28;20044;-76
2023/03/04 05:17:42;;;;;;;18.02;4.07;;;;;;;4.75;80.03;102384.16;5000196;28;20029;-75
2023/03/04 05:20:08;;;;;;;15.40;3.88;;;;;;;4.71;80.51;102381.56;5000088;28;20111;-75
2023/03/04 05:22:33;;;;;;;16.50;3.65;;;;;;;4.71;80.33;102381.56;5019297;28;20107;-75
2023/03/04 05:24:59;;;;;;;24.85;3.83;;;;;;;4.68;80.72;102380.75;5019980;28;20060;-75
2023/03/04 05:27:24;;;;;;;17.80;3.45;;;;;;;4.65;80.87;102380.81;5018224;28;20029;-75
2023/03/04 05:29:49;;;;;;;18.63;3.63;;;;;;;4.63;80.69;102378.19;4999724;28;20041;-75
2023/03/04 05:32:15;;;;;;;18.42;4.15;;;;;;;4.65;80.68;102380.81;5019187;28;20112;-76
2023/03/04 05:34:40;;;;;;;16.48;3.40;;;;;;;4.67;80.72;102389.63;5019323;28;20112;-75
2023/03/04 05:37:05;;;;;;;20.17;3.83;;;;;;;4.69;80.63;102388.69;5000609;28;20028;-76
2023/03/04 05:39:31;;;;;;;19.98;4.40;;;;;;;4.68;80.07;102386.06;5001510;28;20039;-75
2023/03/04 05:41:56;;;;;;;13.77;3.75;;;;;;;4.67;79.39;102392.31;5019454;28;20132;-75
2023/03/04 05:44:21;;;;;;;16.77;3.85;;;;;;;4.65;79.21;102386.16;5018391;28;20033;-75
2023/03/04 05:46:46;;;;;;;18.20;3.67;;;;;;;4.67;79.69;102389.63;4999944;28;20486;-75
2023/03/04 05:49:12;;;;;;;18.25;3.40;;;;;;;4.67;79.83;102395.84;5018606;28;20454;-75
2023/03/04 05:51:37;;;;;;;14.30;3.13;;;;;;;4.70;80.05;102394.88;5019067;28;20046;-75
2023/03/04 05:54:02;;;;;;;13.23;3.08;;;;;;;4.70;79.73;102398.44;5001124;28;20144;-75
2023/03/04 05:56:29;;;;;;;17.10;2.75;;;;;;;4.70;79.58;102395.78;5018821;28;20040;-75
2023/03/04 05:58:57;;;;;;;14.93;3.25;;;;;;;4.71;79.63;102400.22;5016929;28;20037;-75
2023/03/04 06:01:23;;;;;;;13.38;3.05;;;;;;;4.72;79.65;102396.59;5017948;28;20068;-75
2023/03/04 06:03:48;;;;;;;10.52;2.55;;;;;;;4.70;80.17;102398.44;5017830;28;20041;-75
2023/03/04 06:06:13;;;;;;;11.10;2.85;;;;;;;4.70;80.38;102394.88;5018723;28;20029;-75
2023/03/04 06:08:41;;;;;;;13.65;3.08;;;;;;;4.69;80.59;102398.47;5018377;28;20048;-75
2023/03/04 06:11:07;;;;;;;18.10;3.53;;;;;;;4.70;81.28;102402.88;5000404;28;20466;-75
2023/03/04 06:13:33;;;;;;;18.42;2.92;;;;;;;4.70;81.70;102402.88;5017454;28;20041;-75
2023/03/04 06:15:59;;;;;;;13.15;2.20;;;;;;;4.69;82.34;102398.47;5018911;28;20119;-75
2023/03/04 06:18:26;;;;;;;16.75;3.63;;;;;;;4.68;82.30;102397.59;5018550;28;20033;-75
2023/03/04 06:21:02;;;;;;;15.20;3.28;;;;;;;4.70;82.67;102397.56;5017629;28;20048;-75
2023/03/04 06:23:28;;;;;;;11.82;2.95;;;;;;;4.72;82.59;102401.06;5018860;28;20111;-75
2023/03/04 06:25:56;;;;;;;13.27;2.95;;;;;;;4.72;82.96;102407.25;5016873;28;20569;-75
2023/03/04 06:28:22;;;;;;;14.20;3.17;;;;;;;4.74;82.90;102407.22;5019072;28;20040;-75
2023/03/04 06:30:47;;;;;;;12.65;2.42;;;;;;;4.72;83.22;102406.41;5019812;28;20179;-75
2023/03/04 06:33:13;;;;;;;9.32;2.90;;;;;;;4.70;83.83;102414.44;5019631;28;20437;-75
2023/03/04 06:35:38;;;;;;;14.60;2.60;;;;;;;4.69;85.39;102409.13;5001308;28;20517;-75
2023/03/04 06:38:03;;;;;;;17.08;3.50;;;;;;;4.67;85.50;102410.94;5019922;28;20037;-75
2023/03/04 06:40:28;;;;;;;10.75;2.55;;;;;;;4.64;86.14;102411.03;5000760;28;20524;-75
2023/03/04 06:42:54;;;;;;;20.42;3.13;;;;;;;4.62;86.51;102410.19;5004818;28;20039;-75
2023/03/04 06:45:19;;;;;;;15.32;2.90;;;;;;;4.62;86.71;102411.06;5004327;28;20435;-75
2023/03/04 06:47:44;;;;;;;14.75;3.28;;;;;;;4.61;86.17;102412.00;5003966;28;20060;-75
2023/03/04 06:50:11;;;;;;;13.57;2.70;;;;;;;4.62;86.58;102418.19;5021632;28;20037;-75
2023/03/04 06:52:38;;;;;;;15.35;3.08;;;;;;;4.59;86.29;102415.59;5021980;28;20057;-75
2023/03/04 06:55:04;;;;;;;9.02;2.55;;;;;;;4.58;86.44;102416.50;5019615;28;20491;-75
2023/03/04 06:57:29;;;;;;;13.57;2.67;;;;;;;4.57;86.02;102414.72;5020738;28;20653;-75
2023/03/04 06:59:55;;;;;;;12.75;2.85;;;;;;;4.55;86.12;102423.66;5020853;28;20029;-75
2023/03/04 07:02:20;;;;;;;13.00;3.20;;;;;;;4.56;86.12;102419.19;5020779;28;20029;-75
2023/03/04 07:04:46;;;;;;;11.38;2.85;;;;;;;4.55;86.06;102423.66;5003266;28;20044;-76
2023/03/04 07:07:11;;;;;;;13.73;3.10;;;;;;;4.54;86.32;102411.25;5021781;28;20413;-75
2023/03/04 07:09:36;;;;;;;16.30;3.70;;;;;;;4.53;86.53;102420.13;5002433;28;20426;-75
2023/03/04 07:12:02;;;;;;;14.63;3.65;;;;;;;4.50;86.90;102425.53;5020567;28;20033;-75
2023/03/04 07:14:28;;;;;;;12.55;3.30;;;;;;;4.51;87.40;102421.06;5020583;28;20037;-75
2023/03/04 07:16:53;;;;;;;13.52;3.17;;;;;;;4.51;87.50;102419.31;5000591;28;20088;-75
2023/03/04 07:19:22;;;;;;;14.43;3.30;;;;;;;4.51;87.60;102427.28;5021329;28;20072;-75
2023/03/04 07:21:47;;;;;;;13.82;3.50;;;;;;;4.51;87.83;102429.06;5002774;28;20516;-75
2023/03/04 07:24:13;;;;;;;16.48;3.35;;;;;;;4.53;88.09;102430.78;5021338;28;20041;-75
2023/03/04 07:26:38;;;;;;;15.65;3.60;;;;;;;4.54;88.41;102435.19;5018485;28;20057;-75
2023/03/04 07:29:04;;;;;;;10.30;3.33;;;;;;;4.54;88.12;102435.19;5003741;28;20034;-75
2023/03/04 07:31:32;;;;;;;12.27;3.35;;;;;;;4.59;88.22;102442.22;5020481;28;20409;-75
2023/03/04 07:34:00;;;;;;;11.35;3.20;;;;;;;4.60;88.85;102442.19;5020370;28;20034;-75
2023/03/04 07:36:26;;;;;;;12.18;3.40;;;;;;;4.63;88.92;102447.44;5019809;28;20492;-75
2023/03/04 07:38:53;;;;;;;15.63;3.45;;;;;;;4.65;89.34;102455.38;5001854;28;20029;-75
2023/03/04 07:41:20;;;;;;;16.08;3.78;;;;;;;4.66;88.98;102451.81;5020711;28;20115;-75
2023/03/04 07:43:45;;;;;;;16.85;3.78;;;;;;;4.68;89.38;102450.00;5019620;28;20065;-75
2023/03/04 07:46:11;;;;;;;13.82;3.38;;;;;;;4.68;89.20;102455.31;4999991;28;20565;-75
2023/03/04 07:48:37;;;;;;;15.15;3.42;;;;;;;4.71;89.62;102455.25;5020054;28;20393;-75
2023/03/04 07:51:17;;;;;;;13.60;3.20;;;;;;;4.75;89.39;102458.72;5001372;28;20053;-76
2023/03/04 07:53:44;;;;;;;12.70;3.15;;;;;;;4.76;89.99;102461.34;5000986;28;20087;-75
2023/03/04 07:56:12;;;;;;;16.35;3.33;;;;;;;4.80;89.85;102460.38;5017744;28;20047;-75
2023/03/04 07:58:37;;;;;;;11.75;3.13;;;;;;;4.80;89.55;102460.38;5003148;28;20025;-76
2023/03/04 08:01:15;;;;;;;14.40;3.85;;;;;;;4.85;89.38;102457.59;5016379;28;20661;-75
2023/03/04 08:03:41;;;;;;;18.35;3.72;;;;;;;4.85;89.56;102455.81;5000153;28;20037;-75
2023/03/04 08:06:08;;;;;;;21.73;3.85;;;;;;;4.87;89.81;102458.44;5019092;28;20033;-75
2023/03/04 08:08:34;;;;;;;14.43;3.83;;;;;;;4.86;89.54;102462.91;5001635;28;20025;-75
2023/03/04 08:10:59;;;;;;;14.43;3.53;;;;;;;4.84;89.80;102462.03;5018515;28;20034;-75
2023/03/04 08:13:25;;;;;;;15.45;3.17;;;;;;;4.86;89.83;102470.88;5000055;28;20551;-75
2023/03/04 08:15:50;;;;;;;15.60;3.55;;;;;;;4.88;89.88;102462.84;4999544;28;20069;-75
2023/03/04 08:18:15;;;;;;;19.65;4.28;;;;;;;4.89;90.54;102462.81;5016208;28;20040;-76
2023/03/04 08:20:42;;;;;;;18.27;3.50;;;;;;;4.85;91.04;102460.25;4998008;28;20582;-75
2023/03/04 08:23:09;;;;;;;10.23;2.83;;;;;;;4.89;91.38;102461.91;5019154;28;21335;-75
2023/03/04 08:25:38;;;;;;;12.57;3.22;;;;;;;4.91;91.09;102473.44;5001510;28;20042;-75
2023/03/04 08:28:03;;;;;;;19.67;3.50;;;;;;;4.92;91.02;102460.97;5018264;28;20044;-75
2023/03/04 08:30:29;;;;;;;20.52;3.85;;;;;;;4.93;91.33;102468.94;5018097;28;20033;-76
2023/03/04 08:32:54;;;;;;;18.45;4.22;;;;;;;4.97;91.25;102467.09;5016363;28;20033;-75
2023/03/04 08:35:19;;;;;;;14.40;3.80;;;;;;;5.02;91.91;102467.84;5001596;28;20037;-75
2023/03/04 08:37:45;;;;;;;16.83;3.38;;;;;;;5.04;91.73;102463.38;5016855;28;20533;-75
2023/03/04 08:40:11;;;;;;;12.52;3.20;;;;;;;5.06;91.69;102466.88;4999062;28;20037;-75
2023/03/04 08:42:36;;;;;;;13.95;3.47;;;;;;;5.09;92.15;102474.78;5014944;28;20745;-75
2023/03/04 08:45:02;;;;;;;13.73;3.78;;;;;;;5.11;91.37;102469.41;4998896;28;20033;-75
2023/03/04 08:47:28;;;;;;;13.80;3.63;;;;;;;5.12;91.91;102473.84;5015119;28;20094;-75
2023/03/04 08:49:53;;;;;;;17.88;3.42;;;;;;;5.11;91.22;102475.63;5016077;28;20481;-76
2023/03/04 08:52:18;;;;;;;14.85;4.15;;;;;;;5.14;91.79;102467.56;4997929;28;20036;-75
2023/03/04 08:54:44;;;;;;;19.27;3.90;;;;;;;5.17;91.15;102466.59;4998356;28;20156;-74
2023/03/04 08:57:09;;;;;;;16.88;3.50;;;;;;;5.21;91.08;102471.84;4998066;28;20407;-75
2023/03/04 08:59:34;;;;;;;13.52;4.10;;;;;;;5.29;91.63;102466.31;4999334;28;20144;-75
2023/03/04 09:01:59;;;;;;;17.30;4.53;;;;;;;5.35;90.86;102467.94;5015953;28;20040;-75
2023/03/04 09:04:25;;;;;;;13.15;3.08;;;;;;;5.40;90.14;102460.69;5014557;28;20564;-76
2023/03/04 09:06:50;;;;;;;17.98;3.65;;;;;;;5.41;89.12;102467.78;5017337;28;20148;-75
2023/03/04 09:09:15;;;;;;;16.38;3.75;;;;;;;5.46;89.11;102465.00;5015914;28;20419;-76
2023/03/04 09:11:41;;;;;;;12.38;3.35;;;;;;;5.50;89.10;102459.53;4997963;28;20033;-75
2023/03/04 09:14:06;;;;;;;17.25;3.85;;;;;;;5.53;89.18;102459.44;5016160;28;20664;-75
2023/03/04 09:16:31;;;;;;;15.20;3.90;;;;;;;5.58;89.05;102454.88;5016274;28;20483;-75
2023/03/04 09:18:56;;;;;;;16.55;4.22;;;;;;;5.63;89.02;102454.75;5015866;28;20043;-75
2023/03/04 09:21:22;;;;;;;15.68;3.47;;;;;;;5.65;88.16;102446.72;5015500;28;20041;-75
2023/03/04 09:23:47;;;;;;;13.43;3.22;;;;;;;5.67;87.07;102447.56;4998890;28;20029;-75
2023/03/04 09:26:15;;;;;;;20.27;3.95;;;;;;;5.71;87.96;102449.19;4997087;28;20152;-75
2023/03/04 09:28:41;;;;;;;12.60;3.08;;;;;;;5.74;88.09;102442.00;4998273;28;20037;-75
2023/03/04 09:31:11;;;;;;;11.82;2.60;;;;;;;5.78;86.96;102446.34;4998328;28;20591;-75
2023/03/04 09:33:37;;;;;;;11.10;2.72;;;;;;;5.82;87.80;102443.59;5016283;28;20042;-75
2023/03/04 09:36:03;;;;;;;12.93;2.65;;;;;;;5.84;86.52;102447.09;5015046;28;20029;-76
2023/03/04 09:38:28;;;;;;;10.98;2.33;;;;;;;5.85;86.70;102435.50;5016115;28;20033;-76
2023/03/04 09:40:53;;;;;;;9.90;2.28;;;;;;;5.90;87.35;102442.47;5014036;28;20021;-76
2023/03/04 09:43:28;;;;;;;9.75;2.80;;;;;;;5.91;86.40;102435.31;5015672;28;20051;-76
2023/03/04 09:45:56;;;;;;;11.07;2.80;;;;;;;5.91;86.47;102444.19;4998725;28;20044;-75
2023/03/04 09:48:26;;;;;;;9.77;2.20;;;;;;;5.97;86.11;102442.28;4999373;28;20514;-75
2023/03/04 09:51:05;;;;;;;8.52;2.20;;;;;;;6.04;86.82;102438.56;5016028;28;20037;-76
2023/03/04 09:53:54;;;;;;;12.70;2.38;;;;;;;6.08;86.50;102437.56;4997956;28;20050;-76
2023/03/04 09:56:19;;;;;;;8.70;2.28;;;;;;;6.12;85.14;102433.88;4996238;28;20029;-76
2023/03/04 09:58:56;;;;;;;8.25;2.20;;;;;;;6.14;85.55;102439.19;5015660;28;20110;-75
2023/03/04 10:01:27;;;;;;;7.97;2.08;;;;;;;6.21;85.68;102436.28;5012287;28;20043;-75
2023/03/04 10:04:02;;;;;;;7.75;1.92;;;;;;;6.24;84.70;102438.84;5000589;28;20473;-76
2023/03/04 10:06:30;;;;;;;6.13;2.15;;;;;;;6.27;84.91;102441.44;5004458;28;20014;-75
2023/03/04 10:09:03;;;;;;;7.85;2.15;;;;;;;6.33;85.30;102447.53;5004378;28;20786;-76
2023/03/04 10:12:00;;;;;;;10.35;2.67;;;;;;;6.38;85.40;102437.56;5004264;28;20037;-75
2023/03/04 10:14:59;;;;;;;13.88;2.50;;;;;;;6.39;84.30;102437.50;5001537;28;20760;-75
2023/03/04 10:17:35;;;;;;;10.30;2.50;;;;;;;6.43;84.48;102433.81;5021901;28;20325;-76
2023/03/04 10:20:22;;;;;;;15.35;2.90;;;;;;;6.47;84.08;102434.59;5003286;28;20607;-76
2023/03/04 10:22:50;;;;;;;10.30;2.53;;;;;;;6.49;83.48;102427.44;5002237;28;20109;-76
2023/03/04 10:25:19;;;;;;;14.75;3.42;;;;;;;6.54;83.75;102430.81;5022219;28;20048;-75
2023/03/04 10:27:54;;;;;;;11.18;2.50;;;;;;;6.61;83.40;102427.03;5001621;28;20393;-76
2023/03/04 10:30:57;;;;;;;8.90;2.55;;;;;;;6.70;83.71;102430.34;5004703;28;20033;-76
2023/03/04 10:33:27;;;;;;;8.10;2.30;;;;;;;6.76;81.72;102427.47;5021015;28;20025;-76
2023/03/04 10:36:17;;;;;;;9.13;2.65;;;;;;;6.77;81.33;102423.91;5021276;28;20531;-76
2023/03/04 10:38:44;;;;;;;8.30;2.25;;;;;;;6.75;81.16;102423.03;5022611;28;20434;-76
2023/03/04 10:41:13;;;;;;;13.93;2.20;;;;;;;6.73;80.77;102423.09;5022875;28;20369;-76
2023/03/04 10:43:38;;;;;;;8.80;2.40;;;;;;;6.74;81.49;102424.84;5003426;28;20056;-76
2023/03/04 10:46:04;;;;;;;9.18;2.30;;;;;;;6.73;82.09;102415.09;5003496;28;20536;-75
2023/03/04 10:48:30;;;;;;;13.02;2.58;;;;;;;6.71;81.66;102416.09;5002757;28;20544;-76
2023/03/04 10:51:23;;;;;;;12.40;2.80;;;;;;;6.71;82.58;102408.94;5003723;28;20029;-76
2023/03/04 10:53:54;;;;;;;11.85;2.88;;;;;;;6.71;82.41;102416.09;5021016;28;20527;-76
2023/03/04 10:56:38;;;;;;;15.15;3.30;;;;;;;6.71;82.60;102410.75;5019466;28;20028;-76
2023/03/04 10:59:40;;;;;;;14.13;3.08;;;;;;;6.72;82.82;102413.34;5003506;28;20037;-75
2023/03/04 11:02:21;;;;;;;13.40;2.70;;;;;;;6.74;82.39;102415.97;5020954;28;20021;-76
2023/03/04 11:05:05;;;;;;;12.38;3.22;;;;;;;6.76;82.60;102414.97;5020367;28;20658;-76
2023/03/04 11:07:35;;;;;;;9.07;2.28;;;;;;;6.76;82.84;102406.09;5020683;28;20025;-76
2023/03/04 11:10:08;;;;;;;12.40;2.78;;;;;;;6.74;82.95;102405.28;5020938;28;20083;-76
2023/03/04 11:12:34;;;;;;;5.63;2.40;;;;;;;6.73;83.68;102414.22;5020884;28;20595;-75
2023/03/04 11:15:00;;;;;;;9.35;2.90;;;;;;;6.69;83.83;102402.78;5001944;28;20111;-76
2023/03/04 11:17:38;;;;;;;8.02;2.75;;;;;;;6.66;84.61;102402.84;5018384;28;20748;-76
2023/03/04 11:20:15;;;;;;;10.95;3.15;;;;;;;6.64;84.73;102405.56;5020292;28;20045;-76
2023/03/04 11:22:44;;;;;;;7.00;2.17;;;;;;;6.63;85.54;102398.50;5020612;28;20045;-75
2023/03/04 11:25:25;;;;;;;12.30;3.30;;;;;;;6.66;86.46;102400.16;5002351;28;20033;-76
2023/03/04 11:27:58;;;;;;;12.07;3.65;;;;;;;6.73;87.12;102396.38;5020963;28;20554;-76